Time;durP1;ratioP1;P1;durP2;ratioP2;P2;SDS_P1;SDS_P2;PMS_P1;PMS_P2;Temp;Humidity;BMP_temperature;BMP_pressure;BME280_temperature;BME280_humidity;BME280_pressure;Samples;Min_cycle;Max_cycle;Signal;HPM_P1;HPM_P2
2021/07/21 00:01:49;;;;;;;16.52;12.57;;;;;;;;;;5035276;28;20121;-69
2021/07/21 00:04:15;;;;;;;16.80;12.85;;;;;;;;;;5036615;28;20017;-68
2021/07/21 00:06:41;;;;;;;21.73;12.95;;;;;;;;;;5036372;28;20108;-68
2021/07/21 00:09:08;;;;;;;20.23;12.48;;;;;;;;;;5036646;28;20021;-68
2021/07/21 00:14:21;;;;;;;19.20;13.35;;;;;;;;;;5036295;28;20041;-69
2021/07/21 00:16:57;;;;;;;23.27;13.20;;;;;;;;;;5036103;28;20034;-68
2021/07/21 00:22:09;;;;;;;23.70;13.40;;;;;;;;;;5036063;28;20068;-67
2021/07/21 00:24:35;;;;;;;18.65;13.02;;;;;;;;;;5034982;28;20545;-68
2021/07/21 00:27:02;;;;;;;18.92;12.00;;;;;;;;;;5033403;28;20120;-68
2021/07/21 00:29:28;;;;;;;21.70;13.10;;;;;;;;;;5035930;28;20042;-69
2021/07/21 00:31:54;;;;;;;14.77;12.00;;;;;;;;;;5036417;28;20373;-67
2021/07/21 00:34:20;;;;;;;18.88;12.60;;;;;;;;;;5036096;28;20052;-69
2021/07/21 00:36:46;;;;;;;22.30;12.88;;;;;;;;;;5036074;28;20108;-68
2021/07/21 00:39:13;;;;;;;19.88;13.73;;;;;;;;;;5036034;28;20104;-69
2021/07/21 00:41:40;;;;;;;22.23;12.43;;;;;;;;;;5034559;28;20037;-68
2021/07/21 00:44:06;;;;;;;17.42;11.85;;;;;;;;;;5034615;28;20461;-69
2021/07/21 00:46:34;;;;;;;18.20;11.98;;;;;;;;;;5035811;28;20029;-68
2021/07/21 00:49:00;;;;;;;20.08;13.13;;;;;;;;;;5034316;28;20079;-68
2021/07/21 00:51:26;;;;;;;19.73;12.18;;;;;;;;;;5035750;28;20030;-70
2021/07/21 00:53:52;;;;;;;28.65;13.40;;;;;;;;;;5034400;28;20075;-67
2021/07/21 00:56:19;;;;;;;18.35;13.48;;;;;;;;;;5035673;28;20385;-68
2021/07/21 00:58:46;;;;;;;17.02;12.30;;;;;;;;;;5035694;28;20021;-69
2021/07/21 01:01:12;;;;;;;17.52;12.40;;;;;;;;;;5034203;28;20553;-68
2021/07/21 01:03:38;;;;;;;20.38;13.80;;;;;;;;;;5034286;28;20057;-68
2021/07/21 01:06:05;;;;;;;22.05;13.00;;;;;;;;;;5034896;28;20463;-67
2021/07/21 01:08:31;;;;;;;20.77;13.43;;;;;;;;;;5035504;28;20033;-67
2021/07/21 01:11:03;;;;;;;19.55;12.65;;;;;;;;;;5035430;28;20036;-67
2021/07/21 01:13:41;;;;;;;16.60;12.05;;;;;;;;;;5033799;28;20028;-68
2021/07/21 01:16:16;;;;;;;20.83;13.18;;;;;;;;;;5035107;28;20021;-67
2021/07/21 01:18:45;;;;;;;16.48;12.25;;;;;;;;;;5035334;28;20062;-66
2021/07/21 01:21:15;;;;;;;21.65;13.27;;;;;;;;;;5035099;28;20092;-67
2021/07/21 01:23:48;;;;;;;19.48;13.45;;;;;;;;;;5035230;28;20025;-69
2021/07/21 01:26:18;;;;;;;21.60;12.48;;;;;;;;;;5034877;28;20021;-67
2021/07/21 01:28:47;;;;;;;17.33;11.73;;;;;;;;;;5033849;28;20493;-68
2021/07/21 01:31:15;;;;;;;21.38;12.32;;;;;;;;;;5035093;28;20318;-66
2021/07/21 01:33:43;;;;;;;25.05;13.23;;;;;;;;;;5033681;28;20108;-67
2021/07/21 01:36:27;;;;;;;24.35;13.13;;;;;;;;;;5034952;28;20029;-67
2021/07/21 01:38:54;;;;;;;17.50;12.25;;;;;;;;;;5034954;28;20480;-66
2021/07/21 01:41:22;;;;;;;17.90;12.13;;;;;;;;;;5034758;28;20044;-66
2021/07/21 01:43:50;;;;;;;16.42;12.02;;;;;;;;;;5034774;28;20036;-65
2021/07/21 01:46:19;;;;;;;21.63;12.88;;;;;;;;;;5033698;28;20417;-68
2021/07/21 01:48:46;;;;;;;28.75;14.23;;;;;;;;;;5034467;28;20108;-66
2021/07/21 01:51:13;;;;;;;18.92;11.90;;;;;;;;;;5034638;28;20478;-66
2021/07/21 01:53:39;;;;;;;19.40;12.57;;;;;;;;;;5034561;28;20113;-66
2021/07/21 01:56:09;;;;;;;20.90;12.10;;;;;;;;;;5033322;28;20018;-67
2021/07/21 01:58:37;;;;;;;19.23;12.88;;;;;;;;;;5033253;28;20075;-68
2021/07/21 02:01:06;;;;;;;18.38;12.52;;;;;;;;;;5034196;28;20036;-67
2021/07/21 02:03:33;;;;;;;17.30;11.57;;;;;;;;;;5034449;28;20017;-66
2021/07/21 02:06:01;;;;;;;18.27;13.10;;;;;;;;;;5034388;28;20029;-67
2021/07/21 02:08:27;;;;;;;15.23;12.15;;;;;;;;;;5034352;28;20088;-66
2021/07/21 02:10:56;;;;;;;18.95;13.18;;;;;;;;;;5033026;28;20079;-68
2021/07/21 02:13:25;;;;;;;17.98;12.40;;;;;;;;;;5032912;28;20021;-69
2021/07/21 02:15:52;;;;;;;19.15;12.45;;;;;;;;;;5032737;28;20033;-66
2021/07/21 02:18:19;;;;;;;21.38;13.40;;;;;;;;;;5033418;28;20022;-68
2021/07/21 02:20:49;;;;;;;17.73;12.07;;;;;;;;;;5034125;28;20105;-65
2021/07/21 02:23:16;;;;;;;18.25;12.80;;;;;;;;;;5034333;28;20369;-69
2021/07/21 02:25:43;;;;;;;22.98;12.95;;;;;;;;;;5033004;28;20369;-66
2021/07/21 02:28:09;;;;;;;17.83;12.85;;;;;;;;;;5032207;28;20045;-68
2021/07/21 02:30:36;;;;;;;22.85;12.75;;;;;;;;;;5033985;28;20021;-68
2021/07/21 02:33:06;;;;;;;26.45;13.15;;;;;;;;;;5033864;28;20111;-67
2021/07/21 02:35:33;;;;;;;17.23;12.30;;;;;;;;;;5033598;28;20428;-66
2021/07/21 02:37:59;;;;;;;17.05;12.80;;;;;;;;;;5032526;28;20108;-66
2021/07/21 02:40:26;;;;;;;16.00;12.10;;;;;;;;;;5033715;28;20508;-69
2021/07/21 02:42:52;;;;;;;19.65;13.07;;;;;;;;;;5033659;28;20048;-66
2021/07/21 02:45:19;;;;;;;20.52;13.02;;;;;;;;;;5033623;28;20033;-67
2021/07/21 02:47:45;;;;;;;19.17;13.27;;;;;;;;;;5033896;28;20104;-68
2021/07/21 02:50:12;;;;;;;18.95;13.20;;;;;;;;;;5033567;28;20028;-66
2021/07/21 02:52:54;;;;;;;20.35;13.52;;;;;;;;;;5033513;28;20100;-66
2021/07/21 02:55:23;;;;;;;21.15;13.02;;;;;;;;;;5033567;28;20033;-67
2021/07/21 02:58:10;;;;;;;20.77;12.52;;;;;;;;;;5032190;28;20032;-68
2021/07/21 03:00:36;;;;;;;24.50;14.15;;;;;;;;;;5002859;28;20554;-65
2021/07/21 03:03:05;;;;;;;21.23;13.35;;;;;;;;;;5032121;28;20033;-66
2021/07/21 03:05:31;;;;;;;21.27;15.35;;;;;;;;;;5033327;28;20048;-66
2021/07/21 03:07:58;;;;;;;20.85;13.35;;;;;;;;;;5033268;28;20034;-67
2021/07/21 03:10:26;;;;;;;21.98;14.05;;;;;;;;;;5033366;28;20083;-66
2021/07/21 03:12:55;;;;;;;21.00;13.20;;;;;;;;;;5031943;28;20378;-67
2021/07/21 03:15:23;;;;;;;21.35;13.60;;;;;;;;;;5033199;28;20029;-67
2021/07/21 03:17:50;;;;;;;24.88;14.32;;;;;;;;;;5033157;28;20028;-68
2021/07/21 03:20:17;;;;;;;21.73;13.32;;;;;;;;;;5033187;28;20485;-66
2021/07/21 03:22:44;;;;;;;25.42;14.00;;;;;;;;;;5031778;28;20040;-68
2021/07/21 03:25:12;;;;;;;19.60;13.77;;;;;;;;;;5033342;28;20068;-66
2021/07/21 03:27:39;;;;;;;21.92;14.20;;;;;;;;;;5032831;28;20139;-68
2021/07/21 03:30:07;;;;;;;19.77;14.23;;;;;;;;;;5031780;28;20108;-66
2021/07/21 03:32:33;;;;;;;22.27;14.30;;;;;;;;;;5033041;28;20056;-67
2021/07/21 03:35:00;;;;;;;23.40;14.00;;;;;;;;;;5032953;28;20026;-69
2021/07/21 03:37:27;;;;;;;20.02;13.07;;;;;;;;;;5033236;28;20112;-68
2021/07/21 03:39:58;;;;;;;23.10;14.52;;;;;;;;;;5031644;28;20029;-68
2021/07/21 03:42:25;;;;;;;17.77;13.20;;;;;;;;;;5032946;28;20033;-68
2021/07/21 03:44:53;;;;;;;21.80;13.35;;;;;;;;;;5032923;28;20026;-68
2021/07/21 03:47:19;;;;;;;19.75;13.30;;;;;;;;;;5032603;28;20022;-68
2021/07/21 03:49:46;;;;;;;19.20;13.07;;;;;;;;;;5032982;28;20021;-69
2021/07/21 03:52:13;;;;;;;28.15;13.68;;;;;;;;;;5032845;28;20417;-68
2021/07/21 03:54:40;;;;;;;21.77;13.75;;;;;;;;;;5032813;28;20022;-70
2021/07/21 03:57:07;;;;;;;19.17;13.35;;;;;;;;;;5031494;28;20499;-69
2021/07/21 03:59:36;;;;;;;17.92;13.50;;;;;;;;;;5032768;28;20015;-70
2021/07/21 04:02:02;;;;;;;21.42;13.07;;;;;;;;;;5032708;28;20026;-69
2021/07/21 04:04:29;;;;;;;19.67;13.35;;;;;;;;;;5032491;28;20056;-69
2021/07/21 04:06:57;;;;;;;25.50;13.10;;;;;;;;;;5032687;28;20030;-67
2021/07/21 04:09:25;;;;;;;19.02;12.98;;;;;;;;;;5031398;28;20029;-68
2021/07/21 04:11:52;;;;;;;21.98;12.60;;;;;;;;;;5032378;28;20032;-67
2021/07/21 04:14:19;;;;;;;20.13;13.70;;;;;;;;;;5032640;28;20037;-69
2021/07/21 04:16:45;;;;;;;22.60;13.45;;;;;;;;;;5031336;28;20604;-68
2021/07/21 04:19:13;;;;;;;21.52;13.30;;;;;;;;;;5031309;28;20377;-68
2021/07/21 04:21:41;;;;;;;20.27;12.98;;;;;;;;;;5032579;28;20021;-66
2021/07/21 04:24:09;;;;;;;21.45;12.57;;;;;;;;;;5031245;28;20108;-68
2021/07/21 04:26:35;;;;;;;29.38;12.45;;;;;;;;;;5031189;28;20402;-68
2021/07/21 04:29:02;;;;;;;17.52;12.60;;;;;;;;;;5032528;28;20534;-68
2021/07/21 04:31:28;;;;;;;21.65;14.50;;;;;;;;;;5032498;28;20033;-68
2021/07/21 04:33:55;;;;;;;22.27;13.82;;;;;;;;;;5032478;28;20031;-68
2021/07/21 04:36:22;;;;;;;19.65;12.48;;;;;;;;;;5032422;28;20037;-68
2021/07/21 04:38:50;;;;;;;24.27;13.40;;;;;;;;;;5031080;28;20033;-69
2021/07/21 04:41:17;;;;;;;21.75;12.88;;;;;;;;;;5034922;28;20033;-69
2021/07/21 04:43:44;;;;;;;22.65;12.40;;;;;;;;;;5035944;28;20084;-68
2021/07/21 04:46:10;;;;;;;22.70;12.45;;;;;;;;;;5035607;28;20442;-69
2021/07/21 04:48:38;;;;;;;22.27;13.32;;;;;;;;;;5035831;28;20024;-69
2021/07/21 04:51:04;;;;;;;22.88;13.50;;;;;;;;;;5035894;28;20485;-68
2021/07/21 04:53:32;;;;;;;23.25;13.52;;;;;;;;;;5034206;28;20061;-67
2021/07/21 04:55:58;;;;;;;19.00;12.55;;;;;;;;;;5035769;28;20033;-67
2021/07/21 04:58:24;;;;;;;17.23;12.70;;;;;;;;;;5035640;28;20068;-68
2021/07/21 05:00:53;;;;;;;21.42;12.55;;;;;;;;;;5034336;28;20124;-67
2021/07/21 05:03:19;;;;;;;24.25;12.10;;;;;;;;;;5035629;28;20022;-69
2021/07/21 05:05:45;;;;;;;21.30;12.55;;;;;;;;;;5035505;28;20033;-69
2021/07/21 05:08:12;;;;;;;21.92;13.98;;;;;;;;;;5035723;28;20054;-69
2021/07/21 05:10:40;;;;;;;21.70;13.27;;;;;;;;;;5035467;28;20500;-69
2021/07/21 05:13:06;;;;;;;18.02;13.23;;;;;;;;;;5035458;28;20121;-68
2021/07/21 05:15:33;;;;;;;24.48;12.32;;;;;;;;;;5035604;28;20022;-68
2021/07/21 05:17:59;;;;;;;21.15;13.45;;;;;;;;;;5033988;28;20032;-68
2021/07/21 05:20:25;;;;;;;20.40;13.40;;;;;;;;;;5035272;28;20034;-68
2021/07/21 05:22:51;;;;;;;17.67;13.50;;;;;;;;;;5033818;28;20464;-67
2021/07/21 05:25:21;;;;;;;18.92;12.30;;;;;;;;;;5035120;28;20040;-68
2021/07/21 05:27:47;;;;;;;19.80;14.32;;;;;;;;;;5035187;28;20048;-67
2021/07/21 05:30:14;;;;;;;21.75;13.95;;;;;;;;;;5034984;28;20490;-66
2021/07/21 05:32:41;;;;;;;24.60;14.07;;;;;;;;;;5035281;28;20033;-67
2021/07/21 05:35:07;;;;;;;21.88;13.93;;;;;;;;;;5034928;28;20144;-66
2021/07/21 05:37:34;;;;;;;21.45;13.30;;;;;;;;;;5034901;28;20045;-66
2021/07/21 05:40:00;;;;;;;19.27;12.88;;;;;;;;;;5035154;28;20032;-68
2021/07/21 05:42:26;;;;;;;18.65;13.60;;;;;;;;;;5034348;28;20035;-68
2021/07/21 05:44:52;;;;;;;17.40;13.13;;;;;;;;;;5034217;28;20112;-69
2021/07/21 05:47:19;;;;;;;19.40;13.80;;;;;;;;;;5034497;28;20362;-71
2021/07/21 05:49:45;;;;;;;22.60;13.25;;;;;;;;;;5033393;28;20112;-68
2021/07/21 05:52:11;;;;;;;20.40;13.10;;;;;;;;;;5034612;28;20029;-69
2021/07/21 05:54:39;;;;;;;21.67;13.00;;;;;;;;;;5033336;28;20116;-69
2021/07/21 05:57:06;;;;;;;19.77;13.25;;;;;;;;;;5034575;28;20149;-70
2021/07/21 05:59:33;;;;;;;24.50;13.90;;;;;;;;;;5034228;28;20029;-70
2021/07/21 06:01:59;;;;;;;20.63;13.23;;;;;;;;;;5034430;28;20037;-70
2021/07/21 06:04:25;;;;;;;19.90;12.68;;;;;;;;;;5033060;28;20478;-70
2021/07/21 06:06:51;;;;;;;21.05;13.38;;;;;;;;;;5034347;28;20018;-71
2021/07/21 06:09:17;;;;;;;24.55;13.65;;;;;;;;;;5034650;28;20470;-70
2021/07/21 06:11:43;;;;;;;22.55;13.70;;;;;;;;;;5034072;28;20117;-71
2021/07/21 06:14:10;;;;;;;21.88;12.90;;;;;;;;;;5033793;28;20021;-70
2021/07/21 06:16:37;;;;;;;19.67;12.90;;;;;;;;;;5034191;28;20027;-70
2021/07/21 06:19:04;;;;;;;19.38;12.98;;;;;;;;;;5034150;28;20090;-70
2021/07/21 06:21:30;;;;;;;22.60;13.68;;;;;;;;;;5034077;28;20057;-70
2021/07/21 06:23:56;;;;;;;16.60;12.57;;;;;;;;;;5034314;28;20064;-72
2021/07/21 06:26:22;;;;;;;19.77;13.32;;;;;;;;;;5033705;28;20474;-70
2021/07/21 06:28:49;;;;;;;16.58;12.50;;;;;;;;;;5033994;28;20044;-71
2021/07/21 06:31:16;;;;;;;17.27;11.80;;;;;;;;;;5033769;28;20028;-71
2021/07/21 06:33:42;;;;;;;18.45;12.10;;;;;;;;;;5032553;28;20033;-71
2021/07/21 06:36:08;;;;;;;19.30;12.85;;;;;;;;;;5033657;28;20116;-69
2021/07/21 06:38:34;;;;;;;19.70;12.95;;;;;;;;;;5033647;28;20391;-71
2021/07/21 06:41:01;;;;;;;18.58;11.90;;;;;;;;;;5032232;28;20509;-68
2021/07/21 06:43:27;;;;;;;19.00;11.68;;;;;;;;;;5033621;28;20106;-69
2021/07/21 06:45:53;;;;;;;22.20;13.23;;;;;;;;;;5032002;28;20101;-70
2021/07/21 06:48:20;;;;;;;28.20;15.32;;;;;;;;;;5033568;28;20048;-71
2021/07/21 06:50:46;;;;;;;23.90;14.40;;;;;;;;;;5033535;28;20080;-70
2021/07/21 06:53:12;;;;;;;19.60;13.15;;;;;;;;;;5033478;28;20029;-70
2021/07/21 06:55:38;;;;;;;21.65;12.30;;;;;;;;;;5032116;28;20116;-69
2021/07/21 06:58:04;;;;;;;15.07;10.90;;;;;;;;;;5033397;28;20100;-70
2021/07/21 07:00:31;;;;;;;16.50;11.15;;;;;;;;;;5033362;28;20025;-69
2021/07/21 07:02:58;;;;;;;14.00;10.43;;;;;;;;;;5032967;28;20026;-70
2021/07/21 07:05:25;;;;;;;21.00;11.27;;;;;;;;;;5033365;28;20021;-70
2021/07/21 07:07:51;;;;;;;16.13;11.70;;;;;;;;;;5033528;28;20577;-70
2021/07/21 07:10:18;;;;;;;17.33;11.68;;;;;;;;;;5031624;28;20029;-69
2021/07/21 07:12:48;;;;;;;18.00;11.15;;;;;;;;;;5033234;28;20029;-68
2021/07/21 07:15:14;;;;;;;20.35;12.25;;;;;;;;;;5031828;28;20036;-68
2021/07/21 07:17:40;;;;;;;18.45;10.48;;;;;;;;;;5031793;28;20032;-70
2021/07/21 07:20:08;;;;;;;21.08;10.63;;;;;;;;;;5031834;28;20079;-70
2021/07/21 07:22:34;;;;;;;19.08;11.52;;;;;;;;;;5033090;28;20064;-70
2021/07/21 07:25:01;;;;;;;16.45;10.70;;;;;;;;;;5033078;28;20072;-70
2021/07/21 07:27:30;;;;;;;17.33;10.80;;;;;;;;;;5032886;28;20478;-70
2021/07/21 07:29:57;;;;;;;15.65;10.68;;;;;;;;;;5033000;28;20143;-69
2021/07/21 07:32:23;;;;;;;16.42;9.80;;;;;;;;;;5033019;28;20214;-70
2021/07/21 07:34:49;;;;;;;14.43;10.20;;;;;;;;;;5031741;28;20025;-69
2021/07/21 07:37:16;;;;;;;16.85;10.18;;;;;;;;;;5031499;28;20061;-70
2021/07/21 07:39:42;;;;;;;13.05;10.23;;;;;;;;;;5032886;28;20111;-70
2021/07/21 07:42:09;;;;;;;16.70;10.52;;;;;;;;;;5028456;28;20509;-70
2021/07/21 07:44:35;;;;;;;18.17;9.13;;;;;;;;;;5031816;28;20040;-70
2021/07/21 07:47:01;;;;;;;13.27;8.02;;;;;;;;;;5032151;28;20021;-70
2021/07/21 07:49:27;;;;;;;15.75;10.15;;;;;;;;;;5032821;28;20021;-70
2021/07/21 07:51:53;;;;;;;11.00;8.88;;;;;;;;;;5032784;28;20033;-70
2021/07/21 07:54:21;;;;;;;13.70;9.35;;;;;;;;;;5031156;28;20470;-70
2021/07/21 07:56:47;;;;;;;13.32;8.23;;;;;;;;;;5032502;28;20033;-70
2021/07/21 07:59:13;;;;;;;14.57;7.88;;;;;;;;;;5032722;28;20081;-69
2021/07/21 08:01:40;;;;;;;15.70;8.05;;;;;;;;;;5032582;28;20033;-71
2021/07/21 08:04:06;;;;;;;10.80;8.05;;;;;;;;;;5032560;28;20025;-69
2021/07/21 08:06:34;;;;;;;13.93;7.75;;;;;;;;;;5032504;28;20029;-70
2021/07/21 08:09:00;;;;;;;16.88;8.75;;;;;;;;;;5032551;28;20030;-69
2021/07/21 08:11:26;;;;;;;11.15;8.52;;;;;;;;;;5031206;28;20033;-70
2021/07/21 08:13:53;;;;;;;13.50;7.93;;;;;;;;;;5032219;28;20453;-69
2021/07/21 08:16:19;;;;;;;11.63;8.35;;;;;;;;;;5035214;28;20022;-69
2021/07/21 08:18:45;;;;;;;10.43;8.18;;;;;;;;;;5036310;28;20018;-69
2021/07/21 08:21:11;;;;;;;11.85;8.57;;;;;;;;;;5036266;28;20120;-70
2021/07/21 08:23:38;;;;;;;16.20;9.07;;;;;;;;;;5036128;28;20055;-70
2021/07/21 08:26:04;;;;;;;15.70;8.43;;;;;;;;;;5036303;28;20082;-70
2021/07/21 08:28:33;;;;;;;14.23;9.32;;;;;;;;;;5036184;28;20037;-69
2021/07/21 08:30:59;;;;;;;12.30;8.45;;;;;;;;;;5036151;28;20026;-70
2021/07/21 08:33:25;;;;;;;12.30;9.10;;;;;;;;;;5036163;28;20033;-70
2021/07/21 08:35:52;;;;;;;13.20;8.32;;;;;;;;;;5036119;28;20076;-69
2021/07/21 08:38:18;;;;;;;13.35;8.88;;;;;;;;;;5036001;28;20421;-70
2021/07/21 08:40:47;;;;;;;13.23;8.43;;;;;;;;;;5036150;28;20025;-69
2021/07/21 08:43:13;;;;;;;11.57;8.68;;;;;;;;;;5035993;28;20084;-69
2021/07/21 08:45:39;;;;;;;11.48;8.75;;;;;;;;;;5035918;28;20018;-70
2021/07/21 08:48:06;;;;;;;14.13;8.23;;;;;;;;;;5035812;28;20612;-70
2021/07/21 08:50:32;;;;;;;11.82;8.32;;;;;;;;;;5035771;28;20036;-69
2021/07/21 08:53:00;;;;;;;14.18;8.80;;;;;;;;;;5035693;28;20060;-70
2021/07/21 08:55:26;;;;;;;16.85;9.15;;;;;;;;;;5035697;28;20072;-70
2021/07/21 08:57:52;;;;;;;15.68;9.32;;;;;;;;;;5035621;28;20037;-70
2021/07/21 09:00:19;;;;;;;17.02;9.48;;;;;;;;;;5035600;28;20040;-71
2021/07/21 09:02:46;;;;;;;12.68;8.45;;;;;;;;;;5034238;28;20473;-70
2021/07/21 09:05:13;;;;;;;11.77;8.32;;;;;;;;;;5035405;28;20025;-69
2021/07/21 09:07:40;;;;;;;12.40;8.40;;;;;;;;;;5035047;28;20461;-69
2021/07/21 09:10:07;;;;;;;12.98;8.32;;;;;;;;;;5034042;28;20025;-70
2021/07/21 09:12:34;;;;;;;11.95;8.93;;;;;;;;;;5034046;28;20034;-70
2021/07/21 09:15:00;;;;;;;10.57;8.00;;;;;;;;;;5035140;28;20034;-70
2021/07/21 09:17:27;;;;;;;12.57;8.00;;;;;;;;;;5035325;28;20485;-70
2021/07/21 09:19:53;;;;;;;12.98;8.40;;;;;;;;;;5035031;28;20028;-70
2021/07/21 09:22:24;;;;;;;12.40;8.35;;;;;;;;;;5033567;28;20508;-70
2021/07/21 09:25:10;;;;;;;12.95;8.45;;;;;;;;;;5034000;28;20386;-70
2021/07/21 09:27:37;;;;;;;13.10;8.88;;;;;;;;;;5034187;28;20091;-70
2021/07/21 09:30:04;;;;;;;10.73;7.82;;;;;;;;;;5034993;28;20109;-70
2021/07/21 09:32:30;;;;;;;11.82;8.07;;;;;;;;;;5035341;28;20116;-70
2021/07/21 09:34:56;;;;;;;10.02;7.78;;;;;;;;;;5034986;28;20092;-70
2021/07/21 09:37:23;;;;;;;13.27;7.90;;;;;;;;;;5033633;28;20116;-70
2021/07/21 09:39:50;;;;;;;14.63;8.30;;;;;;;;;;5034856;28;20075;-70
2021/07/21 09:42:17;;;;;;;14.63;7.57;;;;;;;;;;5033078;28;20116;-70
2021/07/21 09:44:45;;;;;;;12.25;7.57;;;;;;;;;;5034506;28;20450;-69
2021/07/21 09:47:14;;;;;;;11.48;8.50;;;;;;;;;;5034740;28;20104;-69
2021/07/21 09:49:41;;;;;;;9.52;7.53;;;;;;;;;;5033385;28;20021;-69
2021/07/21 09:52:18;;;;;;;12.60;7.47;;;;;;;;;;5034585;28;20029;-70
2021/07/21 09:55:03;;;;;;;11.52;7.05;;;;;;;;;;5033359;28;20040;-69
2021/07/21 09:57:29;;;;;;;13.82;9.32;;;;;;;;;;5033277;28;20057;-68
2021/07/21 09:59:57;;;;;;;8.65;6.90;;;;;;;;;;5033185;28;20048;-69
2021/07/21 10:02:27;;;;;;;8.40;7.30;;;;;;;;;;5033106;28;20038;-70
2021/07/21 10:04:54;;;;;;;15.23;7.38;;;;;;;;;;5034410;28;20500;-70
2021/07/21 10:10:11;;;;;;;8.95;6.50;;;;;;;;;;5034246;28;20413;-71
2021/07/21 10:12:37;;;;;;;13.02;8.15;;;;;;;;;;5033919;28;20469;-70
2021/07/21 10:15:04;;;;;;;11.18;8.27;;;;;;;;;;5032861;28;20500;-71
2021/07/21 10:17:30;;;;;;;12.02;8.18;;;;;;;;;;5032861;28;20195;-71
2021/07/21 10:19:59;;;;;;;8.43;7.18;;;;;;;;;;5032770;28;20031;-70
2021/07/21 10:22:26;;;;;;;8.93;7.20;;;;;;;;;;5034003;28;20033;-71
2021/07/21 10:24:53;;;;;;;17.13;8.15;;;;;;;;;;5032857;28;20089;-69
2021/07/21 10:27:20;;;;;;;10.15;7.22;;;;;;;;;;5033514;28;20084;-71
2021/07/21 10:29:46;;;;;;;11.65;7.75;;;;;;;;;;5032605;28;20089;-70
2021/07/21 10:32:16;;;;;;;10.10;7.25;;;;;;;;;;5033886;28;20116;-70
2021/07/21 10:34:42;;;;;;;9.70;6.43;;;;;;;;;;5033644;28;20053;-70
2021/07/21 10:37:09;;;;;;;8.80;6.70;;;;;;;;;;5033778;28;20143;-70
2021/07/21 10:39:36;;;;;;;9.18;6.63;;;;;;;;;;5033366;28;20030;-70
2021/07/21 10:42:04;;;;;;;13.32;6.60;;;;;;;;;;5033665;28;20030;-71
2021/07/21 10:44:30;;;;;;;10.82;6.47;;;;;;;;;;5033712;28;20075;-71
2021/07/21 10:46:56;;;;;;;12.35;6.53;;;;;;;;;;5033340;28;20022;-71
2021/07/21 10:49:48;;;;;;;11.05;6.78;;;;;;;;;;5033878;28;20033;-70
2021/07/21 10:54:48;;;;;;;9.13;6.78;;;29.50;59.20;;;;;;5033439;28;20028;-70
2021/07/21 11:00:11;;;;;;;13.73;6.57;;;29.70;58.20;;;;;;5033233;28;20107;-70
2021/07/21 11:02:37;;;;;;;11.55;6.70;;;29.90;57.00;;;;;;5031759;28;20057;-70
2021/07/21 11:05:05;;;;;;;10.68;6.63;;;30.60;56.60;;;;;;5033475;28;20112;-70
2021/07/21 11:07:53;;;;;;;9.23;6.72;;;30.90;56.70;;;;;;5033382;28;20044;-70
2021/07/21 11:10:39;;;;;;;10.48;6.32;;;30.50;56.20;;;;;;5033289;28;20034;-70
2021/07/21 11:13:07;;;;;;;8.00;6.00;;;30.50;54.90;;;;;;5033318;28;20462;-70
2021/07/21 11:15:33;;;;;;;8.90;6.30;;;31.20;54.40;;;;;;5033200;28;20366;-71
2021/07/21 11:18:17;;;;;;;8.35;6.18;;;;;;;;;;5033204;28;20037;-71
2021/07/21 11:21:00;;;;;;;8.98;6.38;;;31.40;78.40;;;;;;5033154;28;20030;-71
2021/07/21 11:23:49;;;;;;;12.73;6.57;;;32.10;56.70;;;;;;5031886;28;20484;-71
2021/07/21 11:26:51;;;;;;;10.82;6.32;;;32.50;53.30;;;;;;5032826;28;20029;-71
2021/07/21 11:29:25;;;;;;;8.48;6.90;;;31.90;53.30;;;;;;4971803;28;20035;-71
2021/07/21 11:31:53;;;;;;;14.07;7.00;;;31.90;52.90;;;;;;4971908;28;20054;-70
2021/07/21 11:34:35;;;;;;;9.45;6.47;;;31.50;53.20;;;;;;4971911;28;20066;-70
2021/07/21 11:37:09;;;;;;;13.32;6.93;;;32.10;80.50;;;;;;4971758;28;20109;-69
2021/07/21 11:39:50;;;;;;;7.43;6.63;;;;;;;;;;4971810;28;20030;-70
2021/07/21 11:42:31;;;;;;;10.07;7.00;;;;;;;;;;4971736;28;20150;-70
2021/07/21 11:45:03;;;;;;;8.68;6.32;;;;;;;;;;4971813;28;20042;-70
2021/07/21 11:47:30;;;;;;;10.27;6.05;;;;;;;;;;4971705;28;20035;-70
2021/07/21 11:49:57;;;;;;;15.32;7.70;;;;;;;;;;4957694;28;20053;-72
2021/07/21 11:52:24;;;;;;;10.07;7.15;;;;;;;;;;4975676;28;20130;-71
2021/07/21 11:54:52;;;;;;;9.68;6.03;;;32.40;53.60;;;;;;4975573;28;20037;-69
2021/07/21 11:57:23;;;;;;;12.48;6.50;;;32.40;52.50;;;;;;4975481;28;20055;-69
2021/07/21 11:59:56;;;;;;;10.15;6.22;;;32.70;52.80;;;;;;4975547;28;20205;-69
2021/07/21 12:02:26;;;;;;;11.10;6.70;;;;;;;;;;4984085;28;20050;-69
2021/07/21 12:04:53;;;;;;;9.32;7.00;;;32.00;54.60;;;;;;5036664;28;20024;-70
2021/07/21 12:07:21;;;;;;;10.25;6.90;;;32.60;55.40;;;;;;5035034;28;20030;-70
2021/07/21 12:09:49;;;;;;;8.95;6.60;;;33.00;52.80;;;;;;5036582;28;20055;-70
2021/07/21 12:12:18;;;;;;;10.50;6.90;;;33.80;52.70;;;;;;5036564;28;20072;-69
2021/07/21 12:14:55;;;;;;;12.27;6.93;;;33.80;51.80;;;;;;5036486;28;20034;-69
2021/07/21 12:17:25;;;;;;;9.48;7.13;;;32.50;52.50;;;;;;5036444;28;20087;-69
2021/07/21 12:19:56;;;;;;;13.07;6.33;;;32.50;53.50;;;;;;5036481;28;20481;-69
2021/07/21 12:22:23;;;;;;;;;;;32.50;53.80;;;;;;5036799;28;20064;-70
2021/07/21 12:24:56;;;;;;;9.95;7.07;;;32.70;52.60;;;;;;5035078;28;20281;-69
2021/07/21 12:27:31;;;;;;;9.07;6.68;;;33.60;52.20;;;;;;5032482;28;20049;-68
2021/07/21 12:30:08;;;;;;;9.55;6.15;;;34.20;50.30;;;;;;5036278;28;20025;-70
2021/07/21 12:32:35;;;;;;;7.47;6.43;;;34.60;50.80;;;;;;5034969;28;20033;-70
2021/07/21 12:35:01;;;;;;;11.10;6.95;;;33.00;51.30;;;;;;5036165;28;20416;-70
2021/07/21 12:37:29;;;;;;;8.27;6.85;;;33.40;51.80;;;;;;5036102;28;20036;-70
2021/07/21 12:39:58;;;;;;;7.45;5.55;;;34.30;50.00;;;;;;5034644;28;20035;-70
2021/07/21 12:42:26;;;;;;;7.13;6.20;;;34.00;48.80;;;;;;5035936;28;20038;-70
2021/07/21 12:44:54;;;;;;;8.63;6.43;;;;;;;;;;5034728;28;20029;-70
2021/07/21 12:47:20;;;;;;;8.43;5.70;;;;;;;;;;5035881;28;20022;-70
2021/07/21 12:49:52;;;;;;;9.57;6.75;;;32.10;53.60;;;;;;5035840;28;20049;-70
2021/07/21 12:52:34;;;;;;;7.13;6.05;;;32.00;53.90;;;;;;5035796;28;20598;-70
2021/07/21 12:55:02;;;;;;;12.27;6.80;;;34.00;51.40;;;;;;5034523;28;20030;-70
2021/07/21 12:57:57;;;;;;;8.80;5.65;;;34.60;50.60;;;;;;5035772;28;20035;-70
2021/07/21 13:00:25;;;;;;;9.20;6.70;;;35.20;48.70;;;;;;5032931;28;20038;-69
2021/07/21 13:03:06;;;;;;;8.80;6.15;;;35.80;48.20;;;;;;5035416;28;20378;-70
2021/07/21 13:05:48;;;;;;;8.90;6.22;;;35.40;48.90;;;;;;5035641;28;20492;-69
2021/07/21 13:08:21;;;;;;;9.45;5.97;;;35.00;50.10;;;;;;5035840;28;20072;-69
2021/07/21 13:10:48;;;;;;;7.90;5.95;;;35.20;48.90;;;;;;5034269;28;20167;-70
2021/07/21 13:13:34;;;;;;;7.32;5.63;;;36.00;49.30;;;;;;5034189;28;20469;-70
2021/07/21 13:16:23;;;;;;;9.15;6.20;;;36.50;47.80;;;;;;5035419;28;20516;-69
2021/07/21 13:18:51;;;;;;;8.68;5.60;;;36.60;47.40;;;;;;5034043;28;20029;-70
2021/07/21 13:21:23;;;;;;;9.13;6.30;;;37.10;47.00;;;;;;5035171;28;20362;-70
2021/07/21 13:23:51;;;;;;;8.65;5.40;;;37.00;46.80;;;;;;5035135;28;20527;-70
2021/07/21 13:26:18;;;;;;;12.93;5.93;;;38.00;46.20;;;;;;5034903;28;20179;-70
2021/07/21 13:28:50;;;;;;;9.13;5.50;;;38.00;45.40;;;;;;5035271;28;20458;-69
2021/07/21 13:31:21;;;;;;;5.90;5.30;;;36.30;45.30;;;;;;5035156;28;20029;-70
2021/07/21 13:33:49;;;;;;;7.22;5.50;;;;;;;;;;5035039;28;20021;-70
2021/07/21 13:36:17;;;;;;;6.72;6.00;;;;;;;;;;5033597;28;20021;-70
2021/07/21 13:39:10;;;;;;;10.90;5.70;;;35.60;49.00;;;;;;5034967;28;20029;-70
2021/07/21 13:41:43;;;;;;;7.95;5.20;;;36.80;48.10;;;;;;5032218;28;20056;-70
2021/07/21 13:44:11;;;;;;;6.95;5.30;;;36.80;45.50;;;;;;5033536;28;20032;-69
2021/07/21 13:46:49;;;;;;;8.98;5.45;;;37.00;44.70;;;;;;5033284;28;20025;-70
2021/07/21 13:49:15;;;;;;;14.18;6.32;;;36.50;46.50;;;;;;5033447;28;20040;-70
2021/07/21 13:51:43;;;;;;;11.95;5.15;;;37.30;46.70;;;;;;5034717;28;20469;-70
2021/07/21 13:54:24;;;;;;;5.47;4.97;;;38.20;44.80;;;;;;5034608;28;20033;-69
2021/07/21 13:56:56;;;;;;;7.47;5.60;;;36.70;45.50;;;;;;5034663;28;20103;-70
2021/07/21 13:59:23;;;;;;;7.65;5.38;;;36.40;45.80;;;;;;5033311;28;20560;-69
2021/07/21 14:01:50;;;;;;;6.72;5.22;;;;;;;;;;5034348;28;20037;-69
2021/07/21 14:04:16;;;;;;;6.13;5.43;;;36.20;47.60;;;;;;5032950;28;20032;-70
2021/07/21 14:06:43;;;;;;;8.45;5.93;;;;;;;;;;5034377;28;20136;-71
2021/07/21 14:09:10;;;;;;;6.75;5.70;;;;;;;;;;5034233;28;20060;-69
2021/07/21 14:11:36;;;;;;;6.53;5.93;;;35.30;47.60;;;;;;5034200;28;20021;-69
2021/07/21 14:14:03;;;;;;;6.72;5.47;;;;;;;;;;5032947;28;20029;-68
2021/07/21 14:16:29;;;;;;;8.20;5.28;;;35.20;47.00;;;;;;5034275;28;20109;-69
2021/07/21 14:18:55;;;;;;;6.13;5.47;;;35.30;48.20;;;;;;5032896;28;20185;-70
2021/07/21 14:21:20;;;;;;;6.47;5.15;;;36.50;47.40;;;;;;5034074;28;20033;-72
2021/07/21 14:23:46;;;;;;;6.70;5.00;;;38.10;47.00;;;;;;5032809;28;20030;-71